createdAt,value
2023-02-11T00:00:17.951Z,102753.09
2023-02-11T00:01:34.440Z,102739.19
2023-02-11T00:02:37.252Z,102751.13
2023-02-11T00:03:40.080Z,102755.25
2023-02-11T00:04:42.764Z,102758.81
2023-02-11T00:05:45.554Z,102746.81
2023-02-11T00:06:48.547Z,102741.75
2023-02-11T00:07:51.528Z,102746.88
2023-02-11T00:08:55.312Z,102734.75
2023-02-11T00:09:58.026Z,102739.31
2023-02-11T00:11:00.772Z,102752.22
2023-02-11T00:12:03.962Z,102746.25
2023-02-11T00:13:06.664Z,102744.41
2023-02-11T00:14:11.723Z,102743.44
2023-02-11T00:15:14.433Z,102745.13
2023-02-11T00:16:19.953Z,102750.25
2023-02-11T00:17:23.079Z,102745.13
2023-02-11T00:18:26.499Z,102742.69
2023-02-11T00:19:29.276Z,102744.87
2023-02-11T00:20:31.948Z,102748.25
2023-02-11T00:21:36.105Z,102749.03
2023-02-11T00:22:39.069Z,102747.31
2023-02-11T00:23:42.316Z,102745.44
2023-02-11T00:24:45.230Z,102744.41
2023-02-11T00:25:47.961Z,102751.34
2023-02-11T00:26:50.827Z,102748.66
2023-02-11T00:27:53.904Z,102752.03
2023-02-11T00:28:57.308Z,102755.19
2023-02-11T00:30:02.311Z,102752.75
2023-02-11T00:31:06.300Z,102752.63
2023-02-11T00:32:10.555Z,102753.62
2023-02-11T00:33:13.517Z,102752.72
2023-02-11T00:34:16.430Z,102755.13
2023-02-11T00:35:19.122Z,102751.63
2023-02-11T00:36:26.796Z,102744.59
2023-02-11T00:37:29.871Z,102752.63
2023-02-11T00:38:32.955Z,102755.06
2023-02-11T00:39:37.169Z,102762.59
2023-02-11T00:40:39.863Z,102739.84
2023-02-11T00:41:42.526Z,102760.84
2023-02-11T00:42:45.254Z,102755.66
2023-02-11T00:43:49.844Z,102759.94
2023-02-11T00:44:53.470Z,102758.16
2023-02-11T00:45:56.339Z,102759.03
2023-02-11T00:46:59.626Z,102756.34
2023-02-11T00:48:02.433Z,102760.84
2023-02-11T00:49:06.022Z,102753.62
2023-02-11T00:50:09.007Z,102747.03
2023-02-11T00:51:12.062Z,102753.09
2023-02-11T00:52:14.815Z,102748.72
2023-02-11T00:53:18.390Z,102748.78
2023-02-11T00:54:21.479Z,102747.03
2023-02-11T00:55:24.202Z,102744.59
2023-02-11T00:56:27.084Z,102744.31
2023-02-11T00:57:31.853Z,102740.72
2023-02-11T00:58:35.221Z,102748.53
2023-02-11T00:59:38.898Z,102740.72
2023-02-11T01:00:41.722Z,102741.56
2023-02-11T01:01:44.642Z,102738.00
2023-02-11T01:02:47.500Z,102737.19
2023-02-11T01:03:50.361Z,102733.81
2023-02-11T01:04:54.267Z,102729.38
2023-02-11T01:05:57.038Z,102738.06
2023-02-11T01:06:59.935Z,102733.03
2023-02-11T01:08:03.082Z,102721.69
2023-02-11T01:09:06.069Z,102718.19
2023-02-11T01:10:10.986Z,102715.50
2023-02-11T01:11:17.794Z,102710.31
2023-02-11T01:12:21.138Z,102703.38
2023-02-11T01:13:24.852Z,102708.50
2023-02-11T01:14:29.704Z,102704.34
2023-02-11T01:15:33.256Z,102705.94
2023-02-11T01:16:36.422Z,102700.09
2023-02-11T01:17:39.122Z,102696.72
2023-02-11T01:18:44.411Z,102706.91
2023-02-11T01:19:47.663Z,102700.75
2023-02-11T01:20:53.987Z,102698.94
2023-02-11T01:21:56.678Z,102700.47
2023-02-11T01:22:59.463Z,102703.25
2023-02-11T01:24:02.657Z,102700.81
2023-02-11T01:25:06.795Z,102697.25
2023-02-11T01:26:11.601Z,102688.59
2023-02-11T01:27:14.520Z,102695.56
2023-02-11T01:28:20.112Z,102699.59
2023-02-11T01:29:22.961Z,102702.09
2023-02-11T01:30:25.652Z,102695.31
2023-02-11T01:31:30.254Z,102691.94
2023-02-11T01:32:33.756Z,102691.88
2023-02-11T01:33:36.483Z,102699.81
2023-02-11T01:34:41.608Z,102696.56
2023-02-11T01:35:44.784Z,102697.31
2023-02-11T01:36:47.842Z,102700.56
2023-02-11T01:37:50.858Z,102695.44
2023-02-11T01:38:54.194Z,102692.88
2023-02-11T01:39:57.134Z,102697.19
2023-02-11T01:41:06.241Z,102628.91
2023-02-11T01:42:16.825Z,102691.19
2023-02-11T01:43:20.211Z,102685.06
2023-02-11T01:44:35.924Z,102687.69
2023-02-11T01:45:44.678Z,102694.44
2023-02-11T01:46:47.638Z,102688.59
2023-02-11T01:47:51.414Z,102686.81
2023-02-11T01:49:12.868Z,102690.06
2023-02-11T01:50:16.122Z,102685.81
2023-02-11T01:51:22.318Z,102654.28
2023-02-11T01:52:39.373Z,102689.31
2023-02-11T01:54:03.380Z,102690.91
2023-02-11T01:55:29.469Z,102683.94
2023-02-11T01:56:52.168Z,102689.91
2023-02-11T01:57:59.269Z,102688.69
2023-02-11T01:59:11.574Z,102686.06
2023-02-11T02:00:24.348Z,102684.44
2023-02-11T02:01:30.412Z,102685.16
2023-02-11T02:02:43.934Z,102686.84
2023-02-11T02:03:51.938Z,102678.25
2023-02-11T02:05:02.751Z,102677.50
2023-02-11T02:06:17.143Z,102677.59
2023-02-11T02:07:36.833Z,102680.87
2023-02-11T02:08:55.601Z,102683.38
2023-02-11T02:10:06.081Z,102678.13
2023-02-11T02:11:09.117Z,102680.50
2023-02-11T02:12:12.968Z,102676.94
2023-02-11T02:13:16.122Z,102684.34
2023-02-11T02:14:19.311Z,102681.78
2023-02-11T02:15:31.845Z,102681.91
2023-02-11T02:16:36.891Z,102675.13
2023-02-11T02:17:52.624Z,102672.66
2023-02-11T02:19:36.561Z,102667.53
2023-02-11T02:21:06.026Z,102657.31
2023-02-11T02:22:57.197Z,102663.22
2023-02-11T02:24:08.859Z,102661.75
2023-02-11T02:25:33.408Z,102658.00
2023-02-11T02:27:10.161Z,102660.00
2023-02-11T02:28:18.820Z,102659.34
2023-02-11T02:29:42.073Z,102658.47
2023-02-11T02:31:06.732Z,102658.34
2023-02-11T02:32:37.876Z,102655.84
2023-02-11T02:33:40.708Z,102654.28
2023-02-11T02:35:07.619Z,102652.12
2023-02-11T02:36:16.048Z,102650.25
2023-02-11T02:37:31.479Z,102645.06
2023-02-11T02:38:49.519Z,102651.19
2023-02-11T02:39:52.216Z,102640.81
2023-02-11T02:40:59.068Z,102644.25
2023-02-11T02:42:03.187Z,102641.69
2023-02-11T02:43:09.995Z,102638.22
2023-02-11T02:44:13.138Z,102641.56
2023-02-11T02:45:15.964Z,102632.09
2023-02-11T02:46:22.290Z,102637.94
2023-02-11T02:47:25.283Z,102642.38
2023-02-11T02:48:30.174Z,102648.50
2023-02-11T02:49:33.232Z,102649.19
2023-02-11T02:50:38.088Z,102650.87
2023-02-11T02:52:18.141Z,102642.09
2023-02-11T02:53:49.138Z,102646.25
2023-02-11T02:54:57.718Z,102651.38
2023-02-11T02:56:23.578Z,102659.78
2023-02-11T02:57:29.526Z,102663.81
2023-02-11T02:58:48.369Z,102666.16
2023-02-11T03:00:02.962Z,102664.34
2023-02-11T03:01:27.607Z,102662.69
2023-02-11T03:02:56.925Z,102657.75
2023-02-11T03:04:31.880Z,102650.97
2023-02-11T03:05:43.769Z,102656.81
2023-02-11T03:06:57.843Z,102655.16
2023-02-11T03:08:00.791Z,102656.66
2023-02-11T03:09:12.933Z,102655.78
2023-02-11T03:10:33.358Z,102652.47
2023-02-11T03:11:37.814Z,102658.72
2023-02-11T03:12:43.245Z,102657.72
2023-02-11T03:13:48.639Z,102652.59
2023-02-11T03:14:52.273Z,102652.50
2023-02-11T03:15:58.770Z,102654.84
2023-02-11T03:17:04.829Z,102656.53
2023-02-11T03:18:11.963Z,102650.69
2023-02-11T03:19:26.619Z,102647.94
2023-02-11T03:20:33.246Z,102654.19
2023-02-11T03:21:38.962Z,102659.31
2023-02-11T03:22:53.008Z,102659.94
2023-02-11T03:24:06.027Z,102653.78
2023-02-11T03:25:09.712Z,102654.50
2023-02-11T03:26:34.560Z,102647.66
2023-02-11T03:28:16.327Z,102644.28
2023-02-11T03:29:32.336Z,102635.19
2023-02-11T03:31:21.848Z,102629.81
2023-02-11T03:32:46.133Z,102631.50
2023-02-11T03:33:58.107Z,102634.66
2023-02-11T03:35:12.350Z,102635.38
2023-02-11T03:36:21.950Z,102627.66
2023-02-11T03:37:28.622Z,102629.53
2023-02-11T03:38:36.409Z,102626.97
2023-02-11T03:39:50.880Z,102618.84
2023-02-11T03:40:55.737Z,102618.25
2023-02-11T03:42:00.869Z,102620.72
2023-02-11T03:43:13.986Z,102616.22
2023-02-11T03:44:17.508Z,102618.84
2023-02-11T03:45:23.012Z,102603.03
2023-02-11T03:46:37.408Z,102613.75
2023-02-11T03:47:45.754Z,102616.16
2023-02-11T03:48:52.650Z,102614.62
2023-02-11T03:49:58.123Z,102614.62
2023-02-11T03:51:05.619Z,102608.53
2023-02-11T03:52:11.389Z,102608.41
2023-02-11T03:53:15.348Z,102605.94
2023-02-11T03:54:24.377Z,102607.75
2023-02-11T03:55:29.461Z,102592.53
2023-02-11T03:56:39.720Z,102599.44
2023-02-11T03:57:42.855Z,102582.00
2023-02-11T03:58:46.151Z,102588.09
2023-02-11T03:59:57.115Z,102590.56
2023-02-11T04:01:02.508Z,102583.59
2023-02-11T04:02:05.585Z,102580.16
2023-02-11T04:03:10.603Z,102575.13
2023-02-11T04:04:13.892Z,102573.47
2023-02-11T04:05:16.868Z,102566.44
2023-02-11T04:06:19.644Z,102566.72
2023-02-11T04:07:22.711Z,102568.75
2023-02-11T04:08:25.414Z,102557.69
2023-02-11T04:09:28.088Z,102563.75
2023-02-11T04:10:31.347Z,102557.59
2023-02-11T04:11:33.999Z,102554.12
2023-02-11T04:12:37.069Z,102551.63
2023-02-11T04:13:39.787Z,102554.28
2023-02-11T04:14:42.549Z,102553.31
2023-02-11T04:15:47.816Z,102555.75
2023-02-11T04:16:51.405Z,102555.81
2023-02-11T04:17:54.671Z,102549.81
2023-02-11T04:18:58.214Z,102552.31
2023-02-11T04:20:01.125Z,102546.47
2023-02-11T04:21:03.965Z,102552.31
2023-02-11T04:22:06.950Z,102547.25
2023-02-11T04:23:10.348Z,102548.94
2023-02-11T04:24:13.097Z,102535.00
2023-02-11T04:25:15.827Z,102545.50
2023-02-11T04:26:18.522Z,102531.69
2023-02-11T04:27:21.240Z,102547.19
2023-02-11T04:28:24.567Z,102539.72
2023-02-11T04:29:28.316Z,102538.84
2023-02-11T04:30:31.113Z,102528.50
2023-02-11T04:31:33.809Z,102527.56
2023-02-11T04:32:36.536Z,102532.69
2023-02-11T04:33:39.584Z,102531.13
2023-02-11T04:34:42.315Z,102526.81
2023-02-11T04:35:45.384Z,102528.59
2023-02-11T04:36:48.131Z,102526.75
2023-02-11T04:37:50.939Z,102527.63
2023-02-11T04:38:53.886Z,102536.16
2023-02-11T04:39:56.571Z,102541.34
2023-02-11T04:41:00.617Z,102544.84
2023-02-11T04:42:03.554Z,102544.78
2023-02-11T04:43:06.720Z,102543.09
2023-02-11T04:44:09.719Z,102551.56
2023-02-11T04:45:12.687Z,102550.56
2023-02-11T04:46:15.466Z,102551.38
2023-02-11T04:47:18.445Z,102545.28
2023-02-11T04:48:24.976Z,102557.56
2023-02-11T04:49:28.048Z,102559.09
2023-02-11T04:50:30.852Z,102557.31
2023-02-11T04:51:33.599Z,102545.09
2023-02-11T04:52:36.288Z,102556.31
2023-02-11T04:53:39.016Z,102554.47
2023-02-11T04:54:41.990Z,102561.28
2023-02-11T04:55:44.712Z,102560.41
2023-02-11T04:56:47.695Z,102562.97
2023-02-11T04:57:50.414Z,102568.84
2023-02-11T04:58:53.186Z,102569.88
2023-02-11T04:59:56.443Z,102563.97
2023-02-11T05:01:09.721Z,102570.00
2023-02-11T05:02:12.468Z,102573.38
2023-02-11T05:03:15.407Z,102569.28
2023-02-11T05:04:18.355Z,102573.31
2023-02-11T05:05:21.465Z,102582.50
2023-02-11T05:06:24.538Z,102575.66
2023-02-11T05:07:28.363Z,102570.53
2023-02-11T05:08:31.458Z,102576.03
2023-02-11T05:09:34.210Z,102579.50
2023-02-11T05:10:37.611Z,102575.94
2023-02-11T05:11:40.327Z,102579.44
2023-02-11T05:12:43.044Z,102567.31
2023-02-11T05:13:46.464Z,102566.31
2023-02-11T05:14:49.107Z,102575.19
2023-02-11T05:15:52.458Z,102568.25
2023-02-11T05:16:55.348Z,102578.69
2023-02-11T05:17:58.111Z,102576.06
2023-02-11T05:19:00.905Z,102581.12
2023-02-11T05:20:03.828Z,102580.34
2023-02-11T05:21:09.208Z,102578.47
2023-02-11T05:22:11.864Z,102578.94
2023-02-11T05:23:14.624Z,102577.25
2023-02-11T05:24:17.293Z,102573.91
2023-02-11T05:25:20.809Z,102577.94
2023-02-11T05:26:23.832Z,102581.50
2023-02-11T05:27:26.556Z,102574.69
2023-02-11T05:28:29.509Z,102581.50
2023-02-11T05:29:32.324Z,102575.78
2023-02-11T05:30:35.306Z,102578.44
2023-02-11T05:31:38.416Z,102578.34
2023-02-11T05:32:41.162Z,102570.00
2023-02-11T05:33:44.858Z,102577.88
2023-02-11T05:34:47.563Z,102575.19
2023-02-11T05:35:51.112Z,102573.25
2023-02-11T05:36:54.397Z,102563.88
2023-02-11T05:37:57.188Z,102559.72
2023-02-11T05:38:59.921Z,102569.28
2023-02-11T05:40:02.639Z,102565.09
2023-02-11T05:41:06.675Z,102558.63
2023-02-11T05:42:09.912Z,102561.47
2023-02-11T05:43:12.704Z,102557.19
2023-02-11T05:44:15.429Z,102559.72
2023-02-11T05:45:18.286Z,102554.63
2023-02-11T05:46:21.328Z,102552.22
2023-02-11T05:47:24.386Z,102552.22
2023-02-11T05:48:27.228Z,102550.53
2023-02-11T05:49:30.130Z,102557.41
2023-02-11T05:50:33.155Z,102552.31
2023-02-11T05:51:35.941Z,102550.53
2023-02-11T05:52:38.914Z,102544.66
2023-02-11T05:53:42.294Z,102548.94
2023-02-11T05:54:45.109Z,102547.97
2023-02-11T05:55:48.072Z,102538.56
2023-02-11T05:56:50.957Z,102538.72
2023-02-11T05:57:54.299Z,102525.97
2023-02-11T05:58:59.578Z,102544.41
2023-02-11T06:00:03.502Z,102533.91
2023-02-11T06:01:14.939Z,102534.03
2023-02-11T06:02:18.022Z,102539.97
2023-02-11T06:03:21.106Z,102536.66
2023-02-11T06:04:23.974Z,102533.09
2023-02-11T06:05:26.881Z,102542.66
2023-02-11T06:06:29.572Z,102534.09
2023-02-11T06:07:32.879Z,102533.31
2023-02-11T06:08:38.131Z,102529.75
2023-02-11T06:09:41.834Z,102531.63
2023-02-11T06:10:45.746Z,102528.78
2023-02-11T06:11:51.035Z,102532.13
2023-02-11T06:12:54.067Z,102539.16
2023-02-11T06:13:56.824Z,102540.25
2023-02-11T06:14:59.751Z,102542.66
2023-02-11T06:16:03.338Z,102541.28
2023-02-11T06:17:06.212Z,102545.59
2023-02-11T06:18:09.758Z,102518.72
2023-02-11T06:19:12.984Z,102542.37
2023-02-11T06:20:16.193Z,102540.62
2023-02-11T06:21:18.972Z,102545.94
2023-02-11T06:22:21.706Z,102540.31
2023-02-11T06:23:24.710Z,102538.53
2023-02-11T06:24:48.159Z,102532.69
2023-02-11T06:25:51.053Z,102529.53
2023-02-11T06:26:53.934Z,102517.34
2023-02-11T06:27:57.118Z,102530.75
2023-02-11T06:29:01.121Z,102530.75
2023-02-11T06:30:05.631Z,102525.56
2023-02-11T06:31:09.842Z,102533.34
2023-02-11T06:32:33.572Z,102526.88
2023-02-11T06:33:36.151Z,102513.16
2023-02-11T06:34:39.419Z,102525.09
2023-02-11T06:35:42.124Z,102520.12
2023-02-11T06:36:45.387Z,102517.94
2023-02-11T06:37:49.726Z,102519.75
2023-02-11T06:38:52.673Z,102512.84
2023-02-11T06:39:55.672Z,102508.72
2023-02-11T06:40:58.352Z,102503.19
2023-02-11T06:42:01.131Z,102496.50
2023-02-11T06:43:03.814Z,102498.47
2023-02-11T06:44:07.083Z,102502.44
2023-02-11T06:45:11.123Z,102504.47
2023-02-11T06:46:14.202Z,102502.31
2023-02-11T06:47:17.009Z,102510.22
2023-02-11T06:48:20.245Z,102504.87
2023-02-11T06:49:22.995Z,102511.97
2023-02-11T06:50:26.098Z,102510.31
2023-02-11T06:51:29.339Z,102502.66
2023-02-11T06:52:32.704Z,102495.34
2023-02-11T06:53:37.544Z,102497.66
2023-02-11T06:54:40.230Z,102488.28
2023-02-11T06:55:43.297Z,102485.97
2023-02-11T06:56:45.988Z,102484.97
2023-02-11T06:57:48.734Z,102479.50
2023-02-11T06:58:58.069Z,102473.72
2023-02-11T07:00:00.787Z,102474.72
2023-02-11T07:01:09.634Z,102470.72
2023-02-11T07:02:12.658Z,102472.97
2023-02-11T07:03:15.482Z,102468.13
2023-02-11T07:04:19.478Z,102468.50
2023-02-11T07:05:22.152Z,102471.53
2023-02-11T07:06:28.099Z,102466.56
2023-02-11T07:07:34.091Z,102472.91
2023-02-11T07:08:38.139Z,102477.41
2023-02-11T07:09:41.137Z,102469.59
2023-02-11T07:10:43.915Z,102476.66
2023-02-11T07:11:47.194Z,102470.47
2023-02-11T07:12:49.933Z,102469.81
2023-02-11T07:13:54.897Z,102467.41
2023-02-11T07:14:57.886Z,102467.75
2023-02-11T07:16:05.696Z,102474.59
2023-02-11T07:17:08.729Z,102481.59
2023-02-11T07:18:14.325Z,102477.91
2023-02-11T07:19:17.610Z,102483.25
2023-02-11T07:20:20.526Z,102458.62
2023-02-11T07:21:24.422Z,102474.66
2023-02-11T07:22:27.620Z,102468.34
2023-02-11T07:23:30.742Z,102465.34
2023-02-11T07:24:33.475Z,102476.16
2023-02-11T07:25:36.688Z,102474.25
2023-02-11T07:26:40.314Z,102468.31
2023-02-11T07:27:43.994Z,102474.94
2023-02-11T07:28:46.862Z,102478.31
2023-02-11T07:29:49.605Z,102474.81
2023-02-11T07:30:52.345Z,102480.47
2023-02-11T07:31:55.146Z,102484.75
2023-02-11T07:32:58.195Z,102484.53
2023-02-11T07:34:02.148Z,102485.72
2023-02-11T07:35:07.931Z,102486.38
2023-02-11T07:36:11.526Z,102496.25
2023-02-11T07:37:14.446Z,102503.53
2023-02-11T07:38:17.435Z,102506.59
2023-02-11T07:39:21.970Z,102505.75
2023-02-11T07:40:24.985Z,102503.12
2023-02-11T07:41:28.382Z,102494.06
2023-02-11T07:42:31.120Z,102486.19
2023-02-11T07:43:35.478Z,102487.47
2023-02-11T07:44:38.160Z,102483.22
2023-02-11T07:45:43.582Z,102475.19
2023-02-11T07:46:47.934Z,102475.19
2023-02-11T07:47:53.498Z,102459.09
2023-02-11T07:48:56.686Z,102469.59
2023-02-11T07:49:59.330Z,102445.62
2023-02-11T07:51:29.564Z,102468.22
2023-02-11T07:52:32.537Z,102457.59
2023-02-11T07:53:35.594Z,102466.97
2023-02-11T07:54:39.176Z,102470.81
2023-02-11T07:55:43.110Z,102472.78
2023-02-11T07:56:46.149Z,102472.78
2023-02-11T07:57:49.173Z,102476.34
2023-02-11T07:58:52.059Z,102475.41
2023-02-11T07:59:55.053Z,102475.94
2023-02-11T08:01:05.976Z,102487.63
2023-02-11T08:02:09.661Z,102487.22
2023-02-11T08:03:12.706Z,102497.31
2023-02-11T08:04:15.495Z,102488.91
2023-02-11T08:05:18.492Z,102496.00
2023-02-11T08:06:23.840Z,102499.38
2023-02-11T08:07:29.328Z,102500.81
2023-02-11T08:08:32.191Z,102501.88
2023-02-11T08:09:34.883Z,102502.84
2023-02-11T08:10:37.547Z,102502.47
2023-02-11T08:11:40.977Z,102506.12
2023-02-11T08:12:44.576Z,102500.72
2023-02-11T08:13:47.987Z,102502.84
2023-02-11T08:14:51.380Z,102497.91
2023-02-11T08:15:57.794Z,102494.78
2023-02-11T08:17:00.591Z,102499.06
2023-02-11T08:18:03.737Z,102504.47
2023-02-11T08:19:15.080Z,102503.81
2023-02-11T08:20:17.902Z,102513.78
2023-02-11T08:21:21.372Z,102501.75
2023-02-11T08:22:24.179Z,102514.19
2023-02-11T08:23:27.152Z,102514.50
2023-02-11T08:24:29.917Z,102511.06
2023-02-11T08:25:33.166Z,102508.97
2023-02-11T08:26:36.189Z,102507.81
2023-02-11T08:27:38.953Z,102508.00
2023-02-11T08:28:44.822Z,102510.97
2023-02-11T08:29:47.726Z,102513.84
2023-02-11T08:30:50.883Z,102516.22
2023-02-11T08:31:53.899Z,102509.38
2023-02-11T08:32:56.811Z,102499.00
2023-02-11T08:34:02.330Z,102504.47
2023-02-11T08:35:08.750Z,102500.22
2023-02-11T08:36:14.382Z,102498.47
2023-02-11T08:37:17.819Z,102497.25
2023-02-11T08:38:20.567Z,102476.78
2023-02-11T08:39:23.653Z,102488.66
2023-02-11T08:40:26.645Z,102485.13
2023-02-11T08:41:29.707Z,102488.28
2023-02-11T08:42:32.327Z,102483.06
2023-02-11T08:43:35.744Z,102480.13
2023-02-11T08:44:38.821Z,102470.13
2023-02-11T08:45:41.608Z,102465.09
2023-02-11T08:46:44.382Z,102459.16
2023-02-11T08:47:47.061Z,102449.66
2023-02-11T08:48:50.624Z,102450.94
2023-02-11T08:49:53.661Z,102456.38
2023-02-11T08:50:56.735Z,102453.91
2023-02-11T08:52:03.829Z,102461.41
2023-02-11T08:53:06.741Z,102451.69
2023-02-11T08:54:09.875Z,102452.53
2023-02-11T08:55:12.863Z,102450.84
2023-02-11T08:56:16.947Z,102449.28
2023-02-11T08:57:19.752Z,102445.41
2023-02-11T08:58:22.620Z,102447.88
2023-02-11T08:59:25.492Z,102445.12
2023-02-11T09:00:28.570Z,102450.19
2023-02-11T09:01:32.090Z,102388.53
2023-02-11T09:02:35.088Z,102455.41
2023-02-11T09:03:38.039Z,102452.44
2023-02-11T09:04:41.172Z,102449.31
2023-02-11T09:05:45.848Z,102455.03
2023-02-11T09:06:49.134Z,102450.16
2023-02-11T09:07:51.927Z,102452.59
2023-02-11T09:08:56.847Z,102447.47
2023-02-11T09:09:59.556Z,102439.53
2023-02-11T09:11:03.854Z,102446.84
2023-02-11T09:12:06.669Z,102455.09
2023-02-11T09:13:09.966Z,102450.91
2023-02-11T09:14:21.400Z,102452.12
2023-02-11T09:15:24.154Z,102451.19
2023-02-11T09:16:30.865Z,102445.41
2023-02-11T09:17:33.640Z,102450.03
2023-02-11T09:18:36.405Z,102444.72
2023-02-11T09:19:39.104Z,102453.09
2023-02-11T09:20:41.974Z,102444.91
2023-02-11T09:21:45.177Z,102451.28
2023-02-11T09:22:48.326Z,102446.75
2023-02-11T09:23:51.376Z,102443.44
2023-02-11T09:24:55.141Z,102447.53
2023-02-11T09:25:57.804Z,102452.69
2023-02-11T09:27:00.926Z,102438.03
2023-02-11T09:28:03.818Z,102439.13
2023-02-11T09:29:06.583Z,102429.56
2023-02-11T09:30:10.211Z,102432.25
2023-02-11T09:31:16.192Z,102424.44
2023-02-11T09:32:19.246Z,102427.41
2023-02-11T09:33:22.052Z,102433.91
2023-02-11T09:34:24.875Z,102426.53
2023-02-11T09:35:27.811Z,102427.09
2023-02-11T09:36:33.555Z,102426.75
2023-02-11T09:37:37.495Z,102436.28
2023-02-11T09:38:40.866Z,102427.34
2023-02-11T09:39:46.241Z,102428.34
2023-02-11T09:40:49.359Z,102429.50
2023-02-11T09:42:24.821Z,102424.84
2023-02-11T09:43:36.856Z,102427.25
2023-02-11T09:44:40.042Z,102422.09
2023-02-11T09:45:43.147Z,102420.78
2023-02-11T09:46:53.335Z,102413.16
2023-02-11T09:48:00.859Z,102410.78
2023-02-11T09:49:05.151Z,102413.91
2023-02-11T09:50:23.140Z,102413.59
2023-02-11T09:51:47.405Z,102411.53
2023-02-11T09:53:02.265Z,102414.81
2023-02-11T09:54:15.607Z,102423.50
2023-02-11T09:55:23.252Z,102421.81
2023-02-11T09:56:28.370Z,102425.59
2023-02-11T09:57:35.947Z,102418.72
2023-02-11T09:58:41.213Z,102419.19
2023-02-11T09:59:44.970Z,102420.06
2023-02-11T10:01:11.621Z,102411.81
2023-02-11T10:02:27.774Z,102415.75
2023-02-11T10:03:48.836Z,102413.41
2023-02-11T10:05:10.093Z,102410.34
2023-02-11T10:06:29.310Z,102406.84
2023-02-11T10:07:41.576Z,102405.16
2023-02-11T10:09:09.658Z,102403.97
2023-02-11T10:10:39.480Z,102407.69
2023-02-11T10:11:42.304Z,102401.44
2023-02-11T10:13:03.811Z,102412.75
2023-02-11T10:14:24.390Z,102402.66
2023-02-11T10:15:50.574Z,102399.69
2023-02-11T10:17:18.059Z,102401.66
2023-02-11T10:18:42.891Z,102397.22
2023-02-11T10:20:01.036Z,102396.91
2023-02-11T10:21:20.703Z,102392.72
2023-02-11T10:22:31.060Z,102380.41
2023-02-11T10:23:38.290Z,102383.63
2023-02-11T10:24:42.876Z,102385.81
2023-02-11T10:25:50.809Z,102383.34
2023-02-11T10:26:53.774Z,102381.16
2023-02-11T10:27:59.991Z,102375.69
2023-02-11T10:29:31.813Z,102373.34
2023-02-11T10:30:41.071Z,102368.50
2023-02-11T10:31:46.879Z,102359.16
2023-02-11T10:33:07.752Z,102351.69
2023-02-11T10:34:13.005Z,102343.75
2023-02-11T10:35:18.435Z,102341.44
2023-02-11T10:36:24.188Z,102337.12
2023-02-11T10:37:27.038Z,102338.28
2023-02-11T10:38:30.004Z,102334.94
2023-02-11T10:39:33.165Z,102329.62
2023-02-11T10:40:35.961Z,102330.31
2023-02-11T10:42:02.689Z,102327.75
2023-02-11T10:43:10.144Z,102327.56
2023-02-11T10:44:28.772Z,102324.38
2023-02-11T10:45:38.560Z,102319.44
2023-02-11T10:46:42.488Z,102317.72
2023-02-11T10:47:45.264Z,102316.62
2023-02-11T10:48:52.463Z,102319.31
2023-02-11T10:49:55.175Z,102322.66
2023-02-11T10:51:14.725Z,102323.97
2023-02-11T10:52:26.286Z,102320.78
2023-02-11T10:53:29.021Z,102325.50
2023-02-11T10:54:31.701Z,102323.91
2023-02-11T10:55:36.539Z,102320.19
2023-02-11T10:56:46.704Z,102321.22
2023-02-11T10:57:54.614Z,102319.69
2023-02-11T10:59:18.575Z,102308.06
2023-02-11T11:00:39.383Z,102312.28
2023-02-11T11:01:54.320Z,102314.00
2023-02-11T11:03:00.923Z,102308.66
2023-02-11T11:04:04.270Z,102298.41
2023-02-11T11:05:20.078Z,102305.44
2023-02-11T11:06:34.533Z,102310.91
2023-02-11T11:07:37.812Z,102304.28
2023-02-11T11:08:49.325Z,102309.59
2023-02-11T11:09:59.744Z,102318.81
2023-02-11T11:11:05.987Z,102317.63
2023-02-11T11:12:50.485Z,102311.50
2023-02-11T11:13:53.502Z,102313.41
2023-02-11T11:15:18.840Z,102314.00
2023-02-11T11:16:26.189Z,102305.44
2023-02-11T11:17:29.424Z,102313.94
2023-02-11T11:18:32.195Z,102314.94
2023-02-11T11:19:36.851Z,102303.97
2023-02-11T11:20:45.127Z,102311.47
2023-02-11T11:21:50.941Z,102295.41
2023-02-11T11:23:16.534Z,102302.44
2023-02-11T11:24:44.423Z,102311.19
2023-02-11T11:26:00.191Z,102320.12
2023-02-11T11:27:05.329Z,102310.88
2023-02-11T11:28:26.694Z,102311.56
2023-02-11T11:29:38.401Z,102290.81
2023-02-11T11:30:43.421Z,102290.94
2023-02-11T11:31:54.941Z,102286.88
2023-02-11T11:32:59.007Z,102279.97
2023-02-11T11:34:32.501Z,102276.75
2023-02-11T11:35:35.453Z,102277.69
2023-02-11T11:36:46.104Z,102264.66
2023-02-11T11:38:02.271Z,102270.59
2023-02-11T11:39:21.968Z,102273.09
2023-02-11T11:40:36.830Z,102261.63
2023-02-11T11:41:50.262Z,102269.78
2023-02-11T11:43:12.598Z,102264.66
2023-02-11T11:44:31.041Z,102263.31
2023-02-11T11:45:33.910Z,102259.75
2023-02-11T11:46:41.316Z,102259.78
2023-02-11T11:47:56.268Z,102263.87
2023-02-11T11:49:11.768Z,102263.87
2023-02-11T11:50:21.249Z,102248.44
2023-02-11T11:51:24.847Z,102250.06
2023-02-11T11:52:38.524Z,102244.28
2023-02-11T11:53:44.525Z,102244.38
2023-02-11T11:54:59.055Z,102238.38
2023-02-11T11:56:22.303Z,102242.69
2023-02-11T11:57:28.791Z,102234.66
2023-02-11T11:58:32.855Z,102244.34
2023-02-11T11:59:41.712Z,102240.94
2023-02-11T12:01:02.040Z,102233.91
2023-02-11T12:02:16.561Z,102238.25
2023-02-11T12:03:34.443Z,102234.88
2023-02-11T12:04:58.904Z,102240.03
2023-02-11T12:06:07.201Z,102230.53
2023-02-11T12:07:31.000Z,102229.63
2023-02-11T12:08:49.605Z,102233.94
2023-02-11T12:10:14.098Z,102221.78
2023-02-11T12:11:35.263Z,102218.12
2023-02-11T12:13:23.698Z,102214.69
2023-02-11T12:14:47.314Z,102214.84
2023-02-11T12:16:20.913Z,102207.62
2023-02-11T12:17:43.687Z,102198.66
2023-02-11T12:19:00.539Z,102194.47
2023-02-11T12:20:23.786Z,102185.75
2023-02-11T12:21:38.300Z,102186.72
2023-02-11T12:23:15.965Z,102173.09
2023-02-11T12:26:32.764Z,102170.78
2023-02-11T12:27:54.901Z,102169.13
2023-02-11T12:28:58.080Z,102163.94
2023-02-11T12:30:20.651Z,102160.47
2023-02-11T12:31:47.311Z,102163.06
2023-02-11T12:33:22.689Z,102150.09
2023-02-11T12:34:29.812Z,102144.03
2023-02-11T12:35:40.550Z,102136.25
2023-02-11T12:36:54.885Z,102133.66
2023-02-11T12:38:19.040Z,102131.91
2023-02-11T12:39:34.184Z,102124.16
2023-02-11T12:40:49.672Z,102113.72
2023-02-11T12:42:14.785Z,102108.47
2023-02-11T12:43:20.599Z,102111.16
2023-02-11T12:45:12.665Z,102106.84
2023-02-11T12:46:46.481Z,102101.63
2023-02-11T12:48:23.108Z,102112.91
2023-02-11T12:49:54.388Z,102105.97
2023-02-11T12:51:37.755Z,102105.13
2023-02-11T12:53:29.760Z,102106.84
2023-02-11T12:57:28.832Z,102105.06
2023-02-11T12:58:45.022Z,102107.56